Time;durP1;ratioP1;P1;durP2;ratioP2;P2;SDS_P1;SDS_P2;PMS_P1;PMS_P2;Temp;Humidity;BMP_temperature;BMP_pressure;BME280_temperature;BME280_humidity;BME280_pressure;Samples;Min_cycle;Max_cycle;Signal;HPM_P1;HPM_P2
2022/03/18 00:00:40;;;;;;;24.30;16.70;;;;;;;7.59;82.27;102510.94;5033380;28;20023;-71
2022/03/18 00:03:06;;;;;;;23.98;16.35;;;;;;;7.60;82.13;102515.38;5018499;28;20042;-71
2022/03/18 00:05:32;;;;;;;24.52;17.08;;;;;;;7.56;82.13;102516.09;5005546;28;20453;-71
2022/03/18 00:07:58;;;;;;;26.98;16.83;;;;;;;7.54;82.15;102523.00;5025997;28;20381;-71
2022/03/18 00:10:24;;;;;;;22.00;15.63;;;;;;;7.50;82.15;102526.38;5013193;28;20037;-71
2022/03/18 00:12:53;;;;;;;23.83;16.13;;;;;;;7.47;82.39;102533.28;5025979;28;20493;-71
2022/03/18 00:15:19;;;;;;;26.58;17.77;;;;;;;7.43;82.39;102523.47;5005464;28;20030;-71
2022/03/18 00:17:45;;;;;;;21.52;14.88;;;;;;;7.43;82.69;102525.22;5011836;28;20034;-71
2022/03/18 00:20:12;;;;;;;25.40;16.27;;;;;;;7.34;83.33;102525.78;5018674;28;20042;-71
2022/03/18 00:22:40;;;;;;;25.33;15.82;;;;;;;7.34;82.54;102536.28;5013089;28;20049;-71
2022/03/18 00:25:06;;;;;;;21.98;15.98;;;;;;;7.34;83.17;102536.28;5025826;28;20027;-71
2022/03/18 00:27:32;;;;;;;23.60;15.00;;;;;;;7.36;83.06;102539.88;5022374;28;20069;-71
2022/03/18 00:29:58;;;;;;;26.73;15.48;;;;;;;7.29;83.09;102539.56;5014033;28;20385;-71
2022/03/18 00:32:26;;;;;;;23.90;16.13;;;;;;;7.23;83.25;102540.19;5000811;28;20026;-71
2022/03/18 00:34:51;;;;;;;26.75;17.40;;;;;;;7.18;83.09;102540.03;4992405;28;20409;-71
2022/03/18 00:37:16;;;;;;;21.70;15.00;;;;;;;7.20;83.13;102542.69;5010884;28;20053;-71
2022/03/18 00:39:43;;;;;;;24.42;16.25;;;;;;;7.17;84.01;102542.59;5043486;28;20041;-71
2022/03/18 00:42:09;;;;;;;21.60;15.50;;;;;;;7.12;83.45;102546.75;5029900;27;20033;-71
2022/03/18 00:44:35;;;;;;;24.40;15.52;;;;;;;7.06;83.41;102550.03;5009619;28;20037;-71
2022/03/18 00:47:01;;;;;;;21.95;14.35;;;;;;;7.05;83.22;102553.50;5023715;28;20030;-71
2022/03/18 00:52:14;;;;;;;22.60;14.85;;;;;;;6.98;84.03;102557.59;5044981;28;20030;-71
2022/03/18 00:54:40;;;;;;;23.83;14.00;;;;;;;7.00;84.00;102558.56;5034660;28;20034;-71
2022/03/18 00:57:06;;;;;;;20.88;13.82;;;;;;;7.05;84.35;102557.84;5013850;28;20046;-71
2022/03/18 00:59:32;;;;;;;22.73;13.50;;;;;;;7.05;84.52;102557.84;5019383;28;20403;-71
2022/03/18 01:01:57;;;;;;;17.10;12.77;;;;;;;7.12;83.98;102559.88;5029933;28;20024;-71
2022/03/18 01:04:24;;;;;;;24.80;14.07;;;;;;;7.15;83.38;102560.00;5009627;28;20121;-71
2022/03/18 01:06:50;;;;;;;19.73;12.50;;;;;;;7.18;83.48;102570.66;5049312;28;20381;-71
2022/03/18 01:09:16;;;;;;;20.15;12.88;;;;;;;7.17;83.54;102563.59;5019938;28;20075;-71
2022/03/18 01:11:42;;;;;;;27.15;13.77;;;;;;;7.21;83.78;102568.16;5033218;28;20037;-70
2022/03/18 01:14:08;;;;;;;24.63;13.73;;;;;;;7.23;83.37;102576.97;5015144;28;20029;-71
2022/03/18 01:16:33;;;;;;;19.63;12.85;;;;;;;7.27;83.38;102576.25;5008305;28;20037;-71
2022/03/18 01:18:59;;;;;;;23.45;14.73;;;;;;;7.28;82.96;102582.41;5045850;28;20481;-71
2022/03/18 01:21:24;;;;;;;19.85;12.90;;;;;;;7.33;82.98;102581.75;5021187;28;20044;-71
2022/03/18 01:23:50;;;;;;;22.35;13.13;;;;;;;7.37;82.64;102583.69;5016418;28;20041;-71
2022/03/18 01:26:15;;;;;;;25.27;12.82;;;;;;;7.35;82.77;102584.44;5015163;28;20042;-71
2022/03/18 01:28:40;;;;;;;22.33;13.85;;;;;;;7.40;82.29;102583.78;5026501;28;20106;-71
2022/03/18 01:31:06;;;;;;;22.15;14.52;;;;;;;7.44;82.43;102580.47;5010864;28;20133;-71
2022/03/18 01:33:33;;;;;;;23.08;12.95;;;;;;;7.44;82.40;102580.47;5014554;28;20037;-71
2022/03/18 01:35:59;;;;;;;20.42;13.35;;;;;;;7.44;82.08;102585.72;5017049;28;20037;-71
2022/03/18 01:38:25;;;;;;;20.48;13.10;;;;;;;7.46;82.41;102577.88;5038626;28;20424;-71
2022/03/18 01:40:51;;;;;;;22.35;12.98;;;;;;;7.43;82.24;102589.16;5018359;28;20038;-71
2022/03/18 01:43:16;;;;;;;19.05;13.07;;;;;;;7.48;81.92;102584.09;5004966;28;20038;-71
2022/03/18 01:45:42;;;;;;;18.30;13.75;;;;;;;7.52;82.15;102588.66;5005940;28;20030;-71
2022/03/18 01:48:07;;;;;;;17.70;12.07;;;;;;;7.49;81.82;102583.25;5012536;28;20037;-71
2022/03/18 01:50:33;;;;;;;18.65;13.38;;;;;;;7.46;82.37;102599.78;5028507;28;20037;-71
2022/03/18 01:52:59;;;;;;;21.45;13.68;;;;;;;7.58;81.36;102602.03;5030646;28;20083;-71
2022/03/18 01:55:24;;;;;;;21.58;12.70;;;;;;;7.66;81.17;102597.06;5011882;28;20076;-71
2022/03/18 01:57:51;;;;;;;20.88;12.07;;;;;;;7.64;81.60;102598.72;5007231;28;20076;-71
2022/03/18 02:00:19;;;;;;;20.60;13.07;;;;;;;7.61;81.49;102593.38;5018499;28;20036;-71
2022/03/18 02:02:45;;;;;;;19.33;13.20;;;;;;;7.60;81.37;102612.59;5021280;28;20979;-71
2022/03/18 02:05:11;;;;;;;21.63;14.00;;;;;;;7.55;81.39;102603.66;5029220;28;20078;-71
2022/03/18 02:07:37;;;;;;;22.77;13.32;;;;;;;7.54;81.45;102613.22;5012652;28;20026;-71
2022/03/18 02:10:03;;;;;;;21.77;13.35;;;;;;;7.53;81.83;102614.06;5024827;28;20046;-71
2022/03/18 02:12:29;;;;;;;21.55;15.13;;;;;;;7.51;81.52;102615.75;5031250;28;20030;-71
2022/03/18 02:14:54;;;;;;;21.42;14.23;;;;;;;7.54;81.71;102623.75;5023904;28;20030;-71
2022/03/18 02:17:19;;;;;;;21.05;14.25;;;;;;;7.60;81.48;102625.75;5021533;28;20120;-71
2022/03/18 02:19:46;;;;;;;25.85;14.63;;;;;;;7.58;81.67;102628.31;4997292;28;20117;-71
2022/03/18 02:22:21;;;;;;;27.60;16.20;;;;;;;7.55;81.34;102630.81;5008733;28;20033;-71
2022/03/18 02:24:48;;;;;;;23.35;14.25;;;;;;;7.64;80.42;102632.91;5049526;28;20038;-71
2022/03/18 02:27:14;;;;;;;22.63;14.90;;;;;;;7.57;80.84;102634.41;5011957;28;20045;-71
2022/03/18 02:29:40;;;;;;;23.85;14.63;;;;;;;7.60;81.17;102633.63;5010273;28;20030;-71
2022/03/18 02:32:07;;;;;;;22.92;14.52;;;;;;;7.61;80.83;102638.03;5035891;28;20451;-71
2022/03/18 02:34:34;;;;;;;26.58;14.52;;;;;;;7.63;80.86;102637.25;5018007;28;20481;-71
2022/03/18 02:36:59;;;;;;;22.88;14.30;;;;;;;7.65;80.69;102639.94;5008219;28;20025;-71
2022/03/18 02:39:25;;;;;;;25.30;14.35;;;;;;;7.69;80.50;102636.59;5026500;28;20045;-71
2022/03/18 02:41:51;;;;;;;26.63;15.55;;;;;;;7.69;80.10;102649.75;5013243;28;20049;-71
2022/03/18 02:44:17;;;;;;;20.02;13.13;;;;;;;7.65;80.53;102642.56;5038858;28;20030;-71
2022/03/18 02:46:42;;;;;;;22.00;14.05;;;;;;;7.70;79.96;102641.00;5027400;28;20039;-71
2022/03/18 02:49:08;;;;;;;22.52;14.38;;;;;;;7.67;80.37;102646.16;5026286;28;20035;-71
2022/03/18 02:51:36;;;;;;;25.98;13.55;;;;;;;7.62;80.38;102642.44;5007467;28;20087;-71
2022/03/18 02:54:02;;;;;;;22.02;13.52;;;;;;;7.69;80.29;102661.16;5025067;28;20026;-71
2022/03/18 02:56:27;;;;;;;25.15;14.43;;;;;;;7.61;80.31;102651.19;4998717;28;20115;-71
2022/03/18 02:58:53;;;;;;;21.40;13.93;;;;;;;7.60;80.27;102655.53;5027810;28;20478;-71
2022/03/18 03:01:18;;;;;;;27.95;15.50;;;;;;;7.63;80.30;102658.28;5005307;28;20544;-71
2022/03/18 03:03:44;;;;;;;24.30;14.73;;;;;;;7.66;80.07;102670.66;5022895;28;20463;-71
2022/03/18 03:08:53;;;;;;;25.30;14.95;;;;;;;7.70;79.51;102680.44;5026447;28;20025;-71
2022/03/18 03:11:20;;;;;;;23.88;14.18;;;;;;;7.60;80.33;102678.31;5035638;28;20491;-71
2022/03/18 03:13:45;;;;;;;25.33;15.77;;;;;;;7.58;80.26;102679.97;5014408;28;20068;-71
2022/03/18 03:16:11;;;;;;;23.70;15.35;;;;;;;7.68;80.11;102690.03;5025665;28;20053;-71
2022/03/18 03:18:36;;;;;;;23.70;15.63;;;;;;;7.68;79.64;102690.03;5017819;28;20125;-71
2022/03/18 03:21:01;;;;;;;21.73;14.63;;;;;;;7.68;80.26;102696.16;5009618;28;20131;-71
2022/03/18 03:23:27;;;;;;;23.38;14.63;;;;;;;7.67;79.53;102698.72;5027117;28;20038;-71
2022/03/18 03:25:54;;;;;;;22.38;13.80;;;;;;;7.72;79.42;102698.91;5028076;28;20050;-71
2022/03/18 03:28:19;;;;;;;26.10;15.80;;;;;;;7.72;79.49;102707.69;5008679;28;20034;-71
2022/03/18 03:30:45;;;;;;;23.85;15.07;;;;;;;7.67;79.63;102715.38;5022144;28;20037;-71
2022/03/18 03:33:11;;;;;;;22.35;15.02;;;;;;;7.66;79.94;102712.72;5018437;28;20025;-71
2022/03/18 03:35:37;;;;;;;22.10;15.05;;;;;;;7.71;79.62;102723.41;5024948;28;20030;-70
2022/03/18 03:38:03;;;;;;;26.50;17.35;;;;;;;7.59;79.79;102721.16;5016529;28;20039;-71
2022/03/18 03:40:29;;;;;;;29.10;16.85;;;;;;;7.62;79.20;102729.16;5016042;28;20022;-71
2022/03/18 03:42:54;;;;;;;29.98;18.65;;;;;;;7.59;79.33;102736.94;5038020;28;20027;-71
2022/03/18 03:45:20;;;;;;;27.27;17.58;;;;;;;7.62;79.06;102734.44;5005053;28;20083;-71
2022/03/18 03:47:45;;;;;;;23.98;16.15;;;;;;;7.63;79.64;102739.75;5010987;28;20066;-71
2022/03/18 03:50:11;;;;;;;26.52;17.58;;;;;;;7.63;79.42;102749.38;5002202;28;20047;-71
2022/03/18 03:52:37;;;;;;;31.17;19.58;;;;;;;7.58;79.52;102745.66;5007476;28;20071;-71
2022/03/18 03:55:04;;;;;;;31.20;20.33;;;;;;;7.50;79.88;102747.06;5006510;28;20058;-71
2022/03/18 03:57:30;;;;;;;30.73;21.00;;;;;;;7.56;79.88;102752.56;5008319;28;20057;-71
2022/03/18 03:59:55;;;;;;;29.88;19.58;;;;;;;7.61;80.09;102751.03;5007244;28;20917;-71
2022/03/18 04:02:21;;;;;;;28.50;18.60;;;;;;;7.61;79.29;102753.66;5006460;28;20036;-71
2022/03/18 04:04:50;;;;;;;30.83;20.90;;;;;;;7.53;79.42;102760.34;5008688;28;20040;-72
2022/03/18 04:07:16;;;;;;;32.83;21.65;;;;;;;7.55;79.58;102763.94;5010051;28;20434;-71
2022/03/18 04:09:42;;;;;;;33.88;21.58;;;;;;;7.57;79.24;102762.25;5010707;28;20030;-71
2022/03/18 04:12:08;;;;;;;29.38;19.60;;;;;;;7.63;79.05;102762.53;5005299;28;20404;-71
2022/03/18 04:14:33;;;;;;;32.88;21.17;;;;;;;7.58;79.62;102766.69;5011380;28;20034;-71
2022/03/18 04:16:58;;;;;;;33.55;21.52;;;;;;;7.56;79.23;102774.50;5049363;28;20027;-71
2022/03/18 04:19:25;;;;;;;33.10;20.90;;;;;;;7.56;79.04;102774.50;5021278;28;20038;-71
2022/03/18 04:21:51;;;;;;;28.30;20.50;;;;;;;7.56;79.42;102771.88;5004148;28;20077;-71
2022/03/18 04:24:16;;;;;;;31.02;19.98;;;;;;;7.59;79.36;102772.00;5028034;28;20033;-71
2022/03/18 04:26:42;;;;;;;29.08;20.25;;;;;;;7.54;79.75;102775.25;5011569;28;20030;-71
2022/03/18 04:29:08;;;;;;;33.63;19.23;;;;;;;7.55;79.17;102782.34;5023681;28;20034;-71
2022/03/18 04:31:34;;;;;;;34.53;21.30;;;;;;;7.44;80.05;102777.50;5026759;28;20048;-71
2022/03/18 04:33:59;;;;;;;28.00;18.52;;;;;;;7.52;79.53;102779.53;4998992;28;20049;-71
2022/03/18 04:36:25;;;;;;;27.45;19.10;;;;;;;7.51;79.72;102783.91;5017730;28;20488;-71
2022/03/18 04:38:50;;;;;;;31.65;19.58;;;;;;;7.51;79.30;102785.66;5031287;28;20049;-71
2022/03/18 04:41:16;;;;;;;27.35;18.45;;;;;;;7.57;79.11;102785.91;5001593;28;20079;-71
2022/03/18 04:43:41;;;;;;;29.75;18.15;;;;;;;7.59;79.07;102794.75;5001483;28;20503;-71
2022/03/18 04:46:06;;;;;;;28.58;16.80;;;;;;;7.60;78.82;102796.56;5003522;28;20034;-71
2022/03/18 04:48:32;;;;;;;26.60;16.92;;;;;;;7.62;78.66;102803.69;4998993;28;20044;-71
2022/03/18 04:50:57;;;;;;;27.08;17.08;;;;;;;7.55;79.12;102803.34;5003108;28;20107;-71
2022/03/18 04:53:23;;;;;;;26.35;17.20;;;;;;;7.54;78.79;102804.16;5019211;28;20034;-71
2022/03/18 04:55:48;;;;;;;29.40;17.70;;;;;;;7.54;78.82;102801.53;5012283;28;20027;-71
2022/03/18 04:58:13;;;;;;;29.52;17.02;;;;;;;7.60;78.52;102807.06;5008167;28;20500;-71
2022/03/18 05:00:39;;;;;;;24.80;16.60;;;;;;;7.58;78.94;102822.75;5002283;28;20463;-71
2022/03/18 05:03:04;;;;;;;24.13;16.38;;;;;;;7.55;78.10;102814.75;4993866;28;20034;-71
2022/03/18 05:05:30;;;;;;;24.75;16.08;;;;;;;7.54;78.39;102817.31;5002586;28;20629;-73
2022/03/18 05:07:57;;;;;;;25.45;16.75;;;;;;;7.47;78.21;102814.41;5002074;28;20561;-71
2022/03/18 05:10:24;;;;;;;22.70;16.70;;;;;;;7.44;78.59;102821.25;5004416;28;20026;-70
2022/03/18 05:12:50;;;;;;;27.52;16.20;;;;;;;7.54;77.88;102827.81;4998274;28;20038;-71
2022/03/18 05:15:16;;;;;;;27.48;16.30;;;;;;;7.44;78.85;102831.75;5007787;28;20075;-71
2022/03/18 05:17:49;;;;;;;27.60;17.23;;;;;;;7.44;79.15;102837.03;5008273;28;20118;-71
2022/03/18 05:20:14;;;;;;;;;;;;;;;7.47;78.49;102837.19;5006986;28;20038;-71
2022/03/18 05:22:39;;;;;;;21.27;14.25;;;;;;;7.49;78.87;102840.75;5003884;28;19982;-71
2022/03/18 05:25:05;;;;;;;26.17;15.68;;;;;;;7.50;78.36;102842.56;5007046;28;20076;-71
2022/03/18 05:27:30;;;;;;;22.33;14.52;;;;;;;7.53;78.48;102847.94;5005786;28;20053;-71
2022/03/18 05:29:55;;;;;;;23.15;14.35;;;;;;;7.54;78.07;102856.72;5007335;28;20048;-71
2022/03/18 05:32:21;;;;;;;22.75;14.68;;;;;;;7.47;78.53;102869.59;5006278;28;20719;-71
2022/03/18 05:34:46;;;;;;;21.77;14.13;;;;;;;7.53;78.21;102870.69;5008296;28;20069;-70
2022/03/18 05:37:11;;;;;;;24.42;13.43;;;;;;;7.49;78.19;102874.91;5008812;28;20041;-71
2022/03/18 05:39:37;;;;;;;22.33;12.98;;;;;;;7.50;78.47;102878.47;5008090;28;20082;-71
2022/03/18 05:42:04;;;;;;;22.50;12.30;;;;;;;7.55;78.80;102877.81;5008354;28;20121;-71
2022/03/18 05:44:29;;;;;;;24.00;11.88;;;;;;;7.52;78.77;102877.69;5007598;28;20508;-71
2022/03/18 05:46:56;;;;;;;21.05;13.40;;;;;;;7.58;78.87;102883.22;5007961;28;20032;-71
2022/03/18 05:49:21;;;;;;;20.48;11.73;;;;;;;7.65;77.99;102884.34;5003243;28;20523;-71
2022/03/18 05:51:46;;;;;;;25.15;12.75;;;;;;;7.67;78.10;102880.06;4998499;28;20070;-71
2022/03/18 05:54:12;;;;;;;22.80;11.88;;;;;;;7.67;77.96;102891.47;5002050;28;20061;-71
2022/03/18 05:56:53;;;;;;;19.90;11.77;;;;;;;7.68;77.49;102892.41;5007008;28;20038;-71
2022/03/18 05:59:20;;;;;;;22.67;12.02;;;;;;;7.69;77.43;102894.19;5006350;28;20124;-71
2022/03/18 06:01:46;;;;;;;21.80;11.45;;;;;;;7.68;77.98;102890.66;5026937;28;20042;-71
2022/03/18 06:04:14;;;;;;;22.92;11.68;;;;;;;7.82;77.04;102900.88;5005705;28;20030;-71
2022/03/18 06:06:40;;;;;;;21.42;12.85;;;;;;;7.74;76.98;102908.44;5032262;28;20034;-71
2022/03/18 06:11:51;;;;;;;25.33;13.35;;;;;;;7.68;77.50;102910.81;5001019;28;20042;-71
2022/03/18 06:14:22;;;;;;;20.95;11.88;;;;;;;7.77;76.67;102923.44;5001299;28;20457;-71
2022/03/18 06:16:49;;;;;;;22.65;14.77;;;;;;;7.72;76.70;102936.38;4997709;28;20523;-71
2022/03/18 06:19:19;;;;;;;24.58;14.85;;;;;;;7.72;76.81;102938.09;4998958;28;20029;-71
2022/03/18 06:21:45;;;;;;;22.42;14.75;;;;;;;7.78;76.17;102936.66;5013002;28;20030;-71
2022/03/18 06:24:12;;;;;;;29.17;14.20;;;;;;;7.81;75.79;102936.78;5028081;28;20038;-71
2022/03/18 06:26:37;;;;;;;26.45;15.55;;;;;;;7.81;75.34;102938.53;5007718;28;20105;-71
2022/03/18 06:29:04;;;;;;;22.38;14.85;;;;;;;7.87;75.58;102944.03;5003066;28;20121;-70
2022/03/18 06:31:29;;;;;;;26.25;16.20;;;;;;;7.88;74.83;102945.81;4996147;28;20117;-72
2022/03/18 06:33:55;;;;;;;23.23;15.50;;;;;;;7.92;74.78;102949.50;4996832;28;20544;-72
2022/03/18 06:36:20;;;;;;;26.45;13.80;;;;;;;7.80;75.38;102953.38;4999616;28;20041;-72
2022/03/18 06:38:46;;;;;;;23.48;16.00;;;;;;;7.92;75.24;102955.66;4997954;28;20041;-72
2022/03/18 06:41:12;;;;;;;27.60;15.07;;;;;;;7.95;74.56;102955.78;5000590;28;20037;-72
2022/03/18 06:43:38;;;;;;;25.23;15.45;;;;;;;7.93;74.25;102959.19;5003577;28;20056;-72
2022/03/18 06:46:03;;;;;;;21.67;14.43;;;;;;;8.08;74.04;102965.09;5003824;28;20032;-72
2022/03/18 06:48:28;;;;;;;28.67;16.63;;;;;;;8.09;72.87;102959.00;5001981;28;20377;-72
2022/03/18 06:50:54;;;;;;;27.52;16.58;;;;;;;8.08;73.20;102976.53;5005929;28;20061;-71
2022/03/18 06:53:20;;;;;;;23.73;14.00;;;;;;;8.08;73.36;102986.16;5000781;28;20035;-72
2022/03/18 06:55:45;;;;;;;23.40;14.68;;;;;;;7.99;73.68;102986.66;5010113;28;20042;-71
2022/03/18 06:58:10;;;;;;;23.27;13.85;;;;;;;8.07;73.86;102985.25;5004296;28;20036;-72
2022/03/18 07:00:37;;;;;;;22.48;15.07;;;;;;;8.18;73.29;102992.72;5001768;28;20073;-72
2022/03/18 07:03:03;;;;;;;20.02;13.73;;;;;;;8.24;72.75;102988.59;5000058;28;20030;-72
2022/03/18 07:05:28;;;;;;;26.85;16.02;;;;;;;8.30;72.96;102999.38;4999931;28;20508;-72
2022/03/18 07:07:53;;;;;;;22.27;14.07;;;;;;;8.50;72.05;103002.00;5003062;28;20038;-72
2022/03/18 07:10:19;;;;;;;20.77;14.60;;;;;;;8.38;71.50;103011.97;5001350;28;20034;-72
2022/03/18 07:12:46;;;;;;;20.40;12.75;;;;;;;8.40;72.12;103020.88;5001091;28;20117;-72
2022/03/18 07:15:12;;;;;;;30.10;15.18;;;;;;;8.27;71.62;103017.66;5003222;28;20075;-72
2022/03/18 07:17:56;;;;;;;24.13;14.48;;;;;;;8.38;70.96;103023.38;5000034;28;20042;-72
2022/03/18 07:20:25;;;;;;;24.63;13.63;;;;;;;8.34;71.34;103022.38;4998970;28;20078;-72
2022/03/18 07:23:16;;;;;;;23.95;15.68;;;;;;;8.37;71.51;103031.22;5001949;28;20137;-72
2022/03/18 07:25:43;;;;;;;29.67;15.60;;;;;;;8.38;71.33;103033.91;5001519;28;20049;-72
2022/03/18 07:28:11;;;;;;;27.17;15.00;;;;;;;8.40;71.65;103034.91;5000642;28;20489;-72
2022/03/18 07:30:38;;;;;;;26.23;13.27;;;;;;;8.33;72.12;103041.63;5002997;28;20038;-72
2022/03/18 07:33:05;;;;;;;27.02;16.88;;;;;;;8.46;71.19;103042.16;4999040;28;20117;-72
2022/03/18 07:35:31;;;;;;;26.23;15.60;;;;;;;8.54;70.89;103031.16;5004229;28;20110;-72
2022/03/18 07:37:56;;;;;;;24.92;15.85;;;;;;;8.67;70.53;103047.44;5014374;28;20077;-72
2022/03/18 07:40:22;;;;;;;27.42;18.33;;;;;;;8.58;69.15;103053.22;5004251;28;20061;-72
2022/03/18 07:42:53;;;;;;;26.92;15.88;;;;;;;8.48;69.85;103041.41;5006367;28;20057;-72
2022/03/18 07:45:23;;;;;;;29.38;16.80;;;;;;;8.51;70.34;103045.91;4999927;28;20034;-72
2022/03/18 07:47:49;;;;;;;26.63;16.90;;;;;;;8.61;69.15;103045.44;5001251;28;20057;-72
2022/03/18 07:50:20;;;;;;;25.60;16.05;;;;;;;8.63;69.62;103049.06;5000124;28;20034;-72
2022/03/18 07:52:55;;;;;;;29.17;16.15;;;;;;;8.84;69.73;103045.53;5002886;28;20030;-72
2022/03/18 07:55:24;;;;;;;28.30;16.02;;;;;;;8.95;69.34;103052.13;5000418;28;20030;-73
2022/03/18 07:57:51;;;;;;;30.73;17.63;;;;;;;8.91;68.39;103051.09;5000504;28;20488;-72
2022/03/18 08:00:17;;;;;;;24.58;15.40;;;;;;;9.03;67.83;103050.69;5002630;28;20632;-72
2022/03/18 08:02:45;;;;;;;27.35;15.75;;;;;;;8.88;68.82;103058.88;4997321;28;20050;-72
2022/03/18 08:05:11;;;;;;;27.77;17.02;;;;;;;8.82;68.35;103052.44;5000592;28;20129;-72
2022/03/18 08:07:37;;;;;;;24.25;15.85;;;;;;;8.92;68.42;103065.16;5000129;28;20038;-72
2022/03/18 08:10:04;;;;;;;26.13;15.65;;;;;;;8.85;68.28;103065.75;5020561;27;20030;-72
2022/03/18 08:12:31;;;;;;;30.38;17.52;;;;;;;8.89;67.94;103065.03;5006638;28;20041;-72
2022/03/18 08:14:58;;;;;;;27.40;16.50;;;;;;;8.96;67.89;103065.38;5005238;28;20476;-72
2022/03/18 08:17:24;;;;;;;29.75;15.93;;;;;;;9.09;67.52;103063.19;5001314;28;20034;-72
2022/03/18 08:19:51;;;;;;;27.00;15.77;;;;;;;9.12;66.63;103069.53;5015353;28;20095;-72
2022/03/18 08:22:20;;;;;;;30.75;17.85;;;;;;;9.11;67.20;103072.97;5001253;28;20045;-72
2022/03/18 08:24:45;;;;;;;29.23;16.38;;;;;;;9.11;66.84;103078.25;5007501;28;20042;-72
2022/03/18 08:27:11;;;;;;;28.67;18.67;;;;;;;9.20;66.69;103078.63;5006923;28;20034;-72
2022/03/18 08:29:36;;;;;;;22.88;14.80;;;;;;;9.23;66.68;103079.59;5002665;28;20072;-72
2022/03/18 08:32:01;;;;;;;31.80;15.55;;;;;;;9.10;66.51;103086.09;5001736;28;20034;-72
2022/03/18 08:34:27;;;;;;;25.23;16.85;;;;;;;9.07;67.10;103096.50;5002254;28;20075;-72
2022/03/18 08:36:52;;;;;;;27.25;16.88;;;;;;;8.88;66.64;103090.50;5004017;28;20115;-72
2022/03/18 08:39:17;;;;;;;26.27;15.43;;;;;;;8.88;67.56;103095.75;4999057;28;20069;-72
2022/03/18 08:41:43;;;;;;;24.52;15.50;;;;;;;8.83;67.56;103099.00;5001612;28;20073;-72
2022/03/18 08:44:08;;;;;;;29.25;16.48;;;;;;;8.85;67.45;103100.88;4999596;28;20046;-72
2022/03/18 08:46:34;;;;;;;26.05;16.83;;;;;;;8.85;67.48;103099.97;5000146;28;20038;-71
2022/03/18 08:49:00;;;;;;;24.25;14.07;;;;;;;9.15;67.17;103095.97;5001291;28;20038;-72
2022/03/18 08:51:25;;;;;;;22.65;15.10;;;;;;;9.27;66.31;103099.94;4998562;28;20037;-72
2022/03/18 08:53:50;;;;;;;28.55;14.95;;;;;;;9.38;66.26;103098.66;5001312;28;20045;-72
2022/03/18 08:56:16;;;;;;;27.38;17.73;;;;;;;9.52;65.28;103110.63;4999736;28;20041;-72
2022/03/18 08:58:41;;;;;;;30.83;19.08;;;;;;;9.78;64.57;103108.13;5002498;28;20121;-72
2022/03/18 09:01:06;;;;;;;28.20;18.55;;;;;;;9.85;64.15;103108.41;5001080;28;20092;-72
2022/03/18 09:03:32;;;;;;;29.08;19.25;;;;;;;9.79;63.09;103113.44;4997944;28;20034;-71
2022/03/18 09:05:57;;;;;;;27.63;18.92;;;;;;;9.78;63.51;103116.03;4999008;28;20089;-72
2022/03/18 09:08:22;;;;;;;28.63;18.52;;;;;;;9.98;63.80;103120.31;5000039;28;20042;-72
2022/03/18 09:10:48;;;;;;;29.60;18.63;;;;;;;9.88;62.83;103119.06;5002864;28;20403;-72
2022/03/18 09:13:13;;;;;;;29.35;19.00;;;;;;;9.94;63.04;103123.69;5008339;28;20523;-72
2022/03/18 09:15:39;;;;;;;29.88;19.17;;;;;;;10.10;63.46;103117.22;4999995;28;20556;-72
2022/03/18 09:18:04;;;;;;;31.10;20.13;;;;;;;10.26;62.25;103121.34;5010641;28;20441;-72
2022/03/18 09:20:29;;;;;;;33.10;22.27;;;;;;;10.62;61.54;103131.47;5000498;28;20549;-72
2022/03/18 09:22:55;;;;;;;29.52;17.27;;;;;;;10.88;60.72;103127.97;5003444;28;20124;-72
2022/03/18 09:25:20;;;;;;;29.98;17.38;;;;;;;10.80;60.54;103120.63;4998172;28;20074;-72
2022/03/18 09:27:46;;;;;;;24.77;16.45;;;;;;;10.87;61.78;103130.53;5000643;28;20113;-72
2022/03/18 09:30:13;;;;;;;24.48;17.40;;;;;;;10.95;59.45;103131.69;4998233;28;20041;-72
2022/03/18 09:32:42;;;;;;;27.83;17.48;;;;;;;10.66;60.80;103128.06;4995642;28;20042;-72
2022/03/18 09:35:10;;;;;;;26.50;18.02;;;;;;;10.65;60.47;103136.84;5001097;28;20500;-72
2022/03/18 09:37:35;;;;;;;25.80;18.10;;;;;;;10.47;60.83;103132.69;5000929;28;20034;-72
2022/03/18 09:40:04;;;;;;;31.95;19.65;;;;;;;10.58;61.58;103129.53;5006150;28;20033;-72
2022/03/18 09:42:31;;;;;;;27.52;18.15;;;;;;;10.43;60.83;103130.81;4999406;28;20437;-72
2022/03/18 09:44:57;;;;;;;27.17;18.88;;;;;;;10.23;61.57;103131.78;5000493;28;20116;-72
2022/03/18 09:47:23;;;;;;;28.13;19.85;;;;;;;10.19;61.95;103132.50;4999004;28;20126;-72
2022/03/18 09:49:49;;;;;;;29.45;17.08;;;;;;;10.29;60.97;103137.31;4998603;28;20088;-71
2022/03/18 09:52:15;;;;;;;27.77;17.40;;;;;;;10.28;62.41;103138.16;5000475;28;20427;-72
2022/03/18 09:54:40;;;;;;;36.50;18.30;;;;;;;10.16;62.12;103129.75;4999899;28;20042;-72
2022/03/18 09:57:06;;;;;;;26.73;18.20;;;;;;;10.23;62.62;103142.34;5001820;28;20121;-72
2022/03/18 09:59:31;;;;;;;26.83;17.38;;;;;;;10.28;61.74;103135.53;5008731;28;20123;-72
2022/03/18 10:02:20;;;;;;;29.80;18.58;;;;;;;10.34;61.83;103140.13;4999476;28;20037;-72
2022/03/18 10:04:53;;;;;;;26.60;18.33;;;;;;;10.29;61.53;103140.84;5009167;28;20045;-72
2022/03/18 10:07:18;;;;;;;30.80;20.17;;;;;;;10.35;60.96;103148.13;4998280;28;20492;-72
2022/03/18 10:09:44;;;;;;;31.98;19.15;;;;;;;10.29;61.64;103142.59;4999852;28;20030;-72
2022/03/18 10:12:37;;;;;;;28.90;17.58;;;;;;;10.37;60.86;103151.69;5004792;28;20448;-72
2022/03/18 10:15:06;;;;;;;31.40;19.70;;;;;;;10.55;61.21;103147.91;5001806;28;20033;-72
2022/03/18 10:17:49;;;;;;;31.75;19.92;;;;;;;10.60;59.90;103159.53;4997801;28;20120;-72
2022/03/18 10:20:23;;;;;;;;;;;;;;;10.45;60.56;103158.16;5008492;28;20090;-72
2022/03/18 10:22:50;;;;;;;28.55;18.60;;;;;;;10.58;59.36;103158.59;4998979;28;19955;-72
2022/03/18 10:25:36;;;;;;;29.92;19.48;;;;;;;10.65;60.03;103164.16;5008491;28;20073;-72
2022/03/18 10:28:02;;;;;;;29.33;18.60;;;;;;;10.91;59.69;103161.53;4996423;28;20041;-72
2022/03/18 10:30:28;;;;;;;31.30;20.23;;;;;;;11.12;58.23;103162.25;4997414;28;20042;-72
2022/03/18 10:32:53;;;;;;;33.85;19.92;;;;;;;11.12;58.29;103171.94;4997055;28;20065;-72
2022/03/18 10:38:35;;;;;;;32.75;20.52;;;;;;;11.46;56.97;103168.66;4999772;28;20041;-73
2022/03/18 10:41:23;;;;;;;32.75;21.05;;;;;;;11.18;56.79;103173.00;4997498;28;20503;-72
2022/03/18 10:43:54;;;;;;;33.60;20.40;;;;;;;11.08;57.86;103183.22;5010983;28;20046;-72
2022/03/18 10:46:21;;;;;;;35.33;21.92;;;;;;;11.26;56.80;103182.97;4997901;28;20039;-72
2022/03/18 10:49:06;;;;;;;34.60;22.58;;;;;;;11.50;56.65;103177.56;4998206;28;20069;-72
2022/03/18 10:51:35;;;;;;;36.83;23.10;;;;;;;11.75;56.48;103180.16;5014417;28;20050;-72
2022/03/18 10:54:00;;;;;;;35.55;23.10;;;;;;;12.06;55.10;103187.31;4994934;28;20030;-72
2022/03/18 10:56:26;;;;;;;31.00;22.92;;;;;;;12.06;54.30;103173.19;5000512;28;20621;-72
2022/03/18 10:58:52;;;;;;;29.65;20.23;;;;;;;12.15;54.81;103172.56;4998952;28;20041;-72
2022/03/18 11:01:19;;;;;;;30.88;19.65;;;;;;;12.46;54.22;103169.94;4998124;28;20061;-72
2022/03/18 11:03:45;;;;;;;31.45;21.35;;;;;;;12.25;53.34;103180.81;5001293;28;20113;-72
2022/03/18 11:06:11;;;;;;;33.85;20.85;;;;;;;12.41;54.23;103173.31;5005416;28;20173;-72
2022/03/18 11:08:43;;;;;;;29.80;20.30;;;;;;;12.47;53.98;103174.41;5007780;28;20022;-72
2022/03/18 11:11:15;;;;;;;31.80;22.48;;;;;;;12.58;52.28;103174.69;5005997;28;20034;-73
2022/03/18 11:13:51;;;;;;;34.45;21.63;;;;;;;12.58;52.90;103177.34;4999889;28;20092;-72
2022/03/18 11:16:25;;;;;;;31.10;21.30;;;;;;;12.71;52.73;103171.53;4997188;28;20393;-73
2022/03/18 11:18:51;;;;;;;28.52;18.73;;;;;;;12.93;52.92;103170.31;4998235;28;20045;-72
2022/03/18 11:21:18;;;;;;;32.83;18.88;;;;;;;12.92;52.82;103171.19;5006246;28;20034;-72
2022/03/18 11:23:45;;;;;;;29.20;19.05;;;;;;;12.85;53.44;103165.69;5007733;28;20034;-72
2022/03/18 11:26:14;;;;;;;30.08;19.23;;;;;;;12.75;52.48;103171.59;5008194;28;20399;-72